Time;durP1;ratioP1;P1;durP2;ratioP2;P2;SDS_P1;SDS_P2;PMS_P1;PMS_P2;Temp;Humidity;BMP_temperature;BMP_pressure;BME280_temperature;BME280_humidity;BME280_pressure;Samples;Min_cycle;Max_cycle;Signal;HPM_P1;HPM_P2
2022/07/03 00:04:32;;;;;;;49.20;46.47;;;;;;;16.05;100.00;101826.11;2008329;71;32817;-67
2022/07/03 00:10:17;;;;;;;51.83;48.87;;;;;;;15.90;100.00;101825.73;2000670;71;32978;-67
2022/07/03 00:16:03;;;;;;;52.57;49.47;;;;;;;15.89;100.00;101822.09;1991702;71;32870;-66
2022/07/03 00:21:49;;;;;;;53.03;49.93;;;;;;;15.84;100.00;101825.50;2010271;71;32915;-67
2022/07/03 00:27:40;;;;;;;57.67;54.03;;;;;;;15.75;100.00;101823.08;1991862;71;32812;-67
2022/07/03 00:33:29;;;;;;;60.27;56.53;;;;;;;15.60;100.00;101814.84;1999200;71;32793;-66
2022/07/03 00:39:15;;;;;;;59.00;55.40;;;;;;;15.28;100.00;101824.62;2022621;70;32815;-67
2022/07/03 00:45:03;;;;;;;59.00;55.30;;;;;;;15.29;100.00;101826.30;2013482;71;33339;-67
2022/07/03 00:50:53;;;;;;;61.77;57.77;;;;;;;15.07;100.00;101815.28;2015249;71;32855;-67
2022/07/03 00:56:48;;;;;;;60.10;56.17;;;;;;;15.12;100.00;101824.48;2012138;71;32863;-67
2022/07/03 01:02:36;;;;;;;58.77;55.03;;;;;;;14.73;100.00;101825.88;2010347;71;32743;-67
2022/07/03 01:05:11;;;;;;;59.17;55.37;;;;;;;14.77;100.00;101824.17;1977036;72;26643;-67
2022/07/03 01:07:48;;;;;;;58.80;55.00;;;;;;;14.77;100.00;101824.17;1970251;72;26647;-67
2022/07/03 01:10:25;;;;;;;62.27;58.07;;;;;;;14.65;100.00;101825.09;1983637;72;26674;-67
2022/07/03 01:16:18;;;;;;;61.03;57.13;;;;;;;14.61;100.00;101832.39;2013361;71;32789;-67
2022/07/03 01:22:14;;;;;;;61.10;57.03;;;;;;;14.59;100.00;101835.45;2004731;71;32792;-66
2022/07/03 01:24:57;;;;;;;58.07;54.20;;;;;;;14.57;100.00;101846.67;1977421;72;26208;-66
2022/07/03 01:30:47;;;;;;;60.17;56.30;;;;;;;14.47;100.00;101835.53;2010036;71;33299;-67
2022/07/03 01:36:36;;;;;;;58.37;54.67;;;;;;;14.21;100.00;101844.55;2017289;71;33309;-67
2022/07/03 01:42:23;;;;;;;57.23;53.63;;;;;;;14.27;100.00;101846.78;1980470;72;33528;-67
2022/07/03 01:48:10;;;;;;;58.10;54.47;;;;;;;14.36;100.00;101849.30;2004176;71;32965;-67
2022/07/03 01:53:57;;;;;;;55.97;52.33;;;;;;;14.03;100.00;101859.17;1999281;70;33240;-67
2022/07/03 01:59:43;;;;;;;57.97;54.23;;;;;;;14.11;100.00;101855.79;2002948;71;33301;-67
2022/07/03 02:05:35;;;;;;;56.57;52.83;;;;;;;14.20;100.00;101851.84;2000876;71;32861;-67
2022/07/03 02:11:25;;;;;;;56.97;53.10;;;;;;;13.92;100.00;101857.50;2010118;71;33308;-67
2022/07/03 02:17:16;;;;;;;58.77;54.93;;;;;;;14.00;100.00;101854.97;2015295;71;32874;-67
2022/07/03 02:19:50;;;;;;;57.40;53.67;;;;;;;13.89;100.00;101858.92;1986598;72;26655;-67
2022/07/03 02:25:39;;;;;;;59.07;55.17;;;;;;;14.04;100.00;101853.28;2014970;71;32806;-66
2022/07/03 02:31:28;;;;;;;57.00;53.50;;;;;;;13.95;100.00;101841.56;2014910;71;32918;-67
2022/07/03 02:37:16;;;;;;;59.70;55.90;;;;;;;13.82;100.00;101839.39;2014810;71;32881;-67
2022/07/03 02:43:18;;;;;;;55.20;51.43;;;;;;;13.73;100.00;101841.93;2009266;71;32960;-67
2022/07/03 02:45:55;;;;;;;58.10;54.40;;;;;;;13.52;100.00;101854.24;1982282;72;26362;-67
2022/07/03 02:48:27;;;;;;;57.33;53.63;;;;;;;13.61;100.00;101849.19;1963545;72;26225;-67
2022/07/03 02:51:01;;;;;;;55.80;52.00;;;;;;;13.65;100.00;101847.50;1984106;72;26294;-67
2022/07/03 02:53:36;;;;;;;57.27;53.67;;;;;;;13.64;100.00;101844.45;1959936;72;26220;-67
2022/07/03 02:59:28;;;;;;;55.80;52.00;;;;;;;13.43;100.00;101848.94;2011578;70;32959;-67
2022/07/03 03:05:19;;;;;;;53.83;50.23;;;;;;;13.45;100.00;101850.87;2017093;71;32928;-67
2022/07/03 03:07:55;;;;;;;55.40;51.77;;;;;;;13.46;100.00;101855.35;1981437;72;26748;-67
2022/07/03 03:13:42;;;;;;;54.10;50.30;;;;;;;13.37;100.00;101842.52;2010259;71;32830;-67
2022/07/03 03:19:28;;;;;;;56.13;52.43;;;;;;;13.39;100.00;101832.48;2013914;71;32745;-66
2022/07/03 03:25:14;;;;;;;55.87;52.17;;;;;;;13.68;100.00;101830.77;1995136;71;33412;-67
2022/07/03 03:30:59;;;;;;;57.50;53.80;;;;;;;13.21;100.00;101842.25;2011459;71;32868;-67
2022/07/03 03:36:43;;;;;;;54.87;51.07;;;;;;;13.13;100.00;101852.57;2013611;71;32810;-67
2022/07/03 03:42:28;;;;;;;55.90;52.07;;;;;;;13.16;100.00;101840.30;1978112;72;33436;-67
2022/07/03 03:48:13;;;;;;;55.33;51.73;;;;;;;13.03;100.00;101838.57;1995606;71;32746;-67
2022/07/03 03:53:58;;;;;;;55.33;51.53;;;;;;;12.93;100.00;101856.12;2017138;71;32815;-73
2022/07/03 03:59:42;;;;;;;52.77;49.20;;;;;;;12.91;100.00;101858.92;2011688;71;32828;-73
2022/07/03 04:05:29;;;;;;;55.40;51.53;;;;;;;12.79;100.00;101868.36;2015155;71;32955;-73
2022/07/03 04:11:15;;;;;;;53.17;49.47;;;;;;;12.48;100.00;101866.61;2008225;71;32762;-73
2022/07/03 04:17:00;;;;;;;55.83;52.17;;;;;;;12.70;100.00;101873.38;2013457;71;32820;-73
2022/07/03 04:22:44;;;;;;;54.17;50.43;;;;;;;12.58;100.00;101876.38;2015590;70;32864;-73
2022/07/03 04:28:28;;;;;;;53.30;49.53;;;;;;;12.72;100.00;101870.58;2004173;71;32833;-73
2022/07/03 04:34:13;;;;;;;54.80;50.90;;;;;;;12.81;100.00;101868.64;2009840;71;33440;-73
2022/07/03 04:39:57;;;;;;;54.57;50.77;;;;;;;12.73;100.00;101870.87;2013214;71;33339;-73
2022/07/03 04:45:42;;;;;;;53.20;49.50;;;;;;;12.67;100.00;101873.34;2006178;71;33481;-72
2022/07/03 04:51:26;;;;;;;54.23;50.53;;;;;;;12.48;100.00;101879.16;2012141;71;32758;-73
2022/07/03 04:57:10;;;;;;;54.23;50.63;;;;;;;12.90;100.00;101890.15;2000622;71;33370;-73
2022/07/03 05:02:54;;;;;;;54.50;50.60;;;;;;;13.01;100.00;101880.67;2000526;71;32902;-73
2022/07/03 05:08:39;;;;;;;55.13;51.33;;;;;;;13.12;100.00;101888.55;2016885;71;32798;-73
2022/07/03 05:14:24;;;;;;;55.40;51.60;;;;;;;13.09;100.00;101881.52;2015456;71;33345;-73
2022/07/03 05:20:28;;;;;;;56.90;52.97;;;;;;;13.27;100.00;101881.58;2010575;71;32788;-73
2022/07/03 05:26:12;;;;;;;58.13;53.87;;;;;;;13.40;100.00;101898.32;2008529;71;32813;-73
2022/07/03 05:31:57;;;;;;;56.30;52.10;;;;;;;13.38;100.00;101894.44;1991744;71;32804;-72
2022/07/03 05:37:41;;;;;;;56.23;52.43;;;;;;;13.51;100.00;101898.06;1991850;71;33263;-72
2022/07/03 05:43:26;;;;;;;56.77;53.07;;;;;;;13.66;100.00;101905.58;2010261;71;32756;-72
2022/07/03 05:49:11;;;;;;;56.03;52.20;;;;;;;13.80;100.00;101900.27;2016989;71;32908;-72
2022/07/03 05:54:55;;;;;;;61.80;57.43;;;;;;;14.11;100.00;101881.78;2006057;71;32943;-72
2022/07/03 06:00:39;;;;;;;59.67;55.57;;;;;;;14.16;100.00;101882.33;2006495;71;32784;-71
2022/07/03 06:06:24;;;;;;;61.63;57.47;;;;;;;14.26;100.00;101883.67;2017117;71;32905;-70
2022/07/03 06:12:10;;;;;;;67.50;62.93;;;;;;;14.53;100.00;101883.33;2017058;71;32813;-71
2022/07/03 06:17:54;;;;;;;68.90;64.07;;;;;;;14.57;100.00;101888.05;1997229;71;32917;-71
2022/07/03 06:23:40;;;;;;;66.00;61.30;;;;;;;14.74;100.00;101880.70;2004212;71;32860;-71
2022/07/03 06:29:25;;;;;;;64.50;59.83;;;;;;;15.18;100.00;101884.90;2015552;71;33403;-71
2022/07/03 06:35:10;;;;;;;63.93;59.53;;;;;;;15.32;100.00;101876.09;2001038;71;32733;-71
2022/07/03 06:40:54;;;;;;;65.00;60.40;;;;;;;15.41;100.00;101877.14;1998641;71;32797;-71
2022/07/03 06:46:39;;;;;;;63.30;58.97;;;;;;;15.55;100.00;101863.90;2017129;71;32931;-71
2022/07/03 06:52:23;;;;;;;62.10;57.90;;;;;;;16.19;100.00;101868.55;2015074;71;33331;-71
2022/07/03 06:54:55;;;;;;;61.20;57.10;;;;;;;16.02;100.00;101871.55;1975777;72;26216;-73
2022/07/03 07:00:40;;;;;;;57.40;53.80;;;;;;;16.30;100.00;101867.28;1998585;71;32896;-70
2022/07/03 07:06:24;;;;;;;56.37;52.87;;;;;;;15.94;100.00;101874.44;1999218;71;32811;-71
2022/07/03 07:12:10;;;;;;;57.83;54.37;;;;;;;15.92;100.00;101884.53;2007741;71;32873;-69
2022/07/03 07:17:54;;;;;;;56.07;52.67;;;;;;;16.12;100.00;101881.27;1991893;71;32837;-70
2022/07/03 07:23:40;;;;;;;54.90;51.67;;;;;;;16.27;100.00;101895.09;2004246;71;32814;-69
2022/07/03 07:29:24;;;;;;;53.70;50.40;;;;;;;16.41;100.00;101889.05;2008426;71;32762;-70
2022/07/03 07:35:10;;;;;;;53.50;50.40;;;;;;;16.61;100.00;101891.61;2015603;71;32887;-70
2022/07/03 07:40:54;;;;;;;51.37;48.37;;;;;;;16.86;100.00;101888.22;2010000;71;33359;-69
2022/07/03 07:46:39;;;;;;;50.60;47.70;;;;;;;17.17;100.00;101890.25;2015519;71;33401;-69
2022/07/03 07:52:24;;;;;;;51.17;48.27;;;;;;;17.88;100.00;101898.94;1995415;71;32823;-69
2022/07/03 07:58:09;;;;;;;49.37;46.50;;;;;;;18.41;100.00;101904.08;2006585;71;30865;-71
2022/07/03 08:09:56;;;;;;;43.17;40.63;;;;;;;18.43;100.00;101903.21;2016983;71;30931;-74
2022/07/03 08:15:40;;;;;;;42.37;40.03;;;;;;;18.43;100.00;101905.45;2002644;71;31013;-72
2022/07/03 08:21:24;;;;;;;42.03;39.53;;;;;;;18.80;100.00;101901.59;2015315;71;32952;-74
2022/07/03 08:27:09;;;;;;;39.70;37.70;;;;;;;18.34;100.00;101904.52;2006027;71;30888;-74
2022/07/03 08:32:55;;;;;;;37.93;35.83;;;;;;;18.64;100.00;101901.67;2010086;71;30896;-74
2022/07/03 08:38:39;;;;;;;34.83;32.70;;;;;;;19.39;100.00;101896.83;1995309;71;31358;-74
2022/07/03 08:44:25;;;;;;;35.03;32.87;;;;;;;18.80;100.00;101904.41;2012194;71;33268;-74
2022/07/03 08:50:13;;;;;;;35.80;33.80;;;;;;;18.67;100.00;101907.23;2013534;71;30929;-75
2022/07/03 08:55:58;;;;;;;39.20;37.00;;;;;;;18.52;100.00;101897.98;2009949;71;31487;-74
2022/07/03 09:01:44;;;;;;;29.10;27.53;;;;;;;19.87;100.00;101891.41;2013947;71;31412;-74
2022/07/03 09:07:30;;;;;;;29.97;28.13;;;;;;;20.36;100.00;101884.72;2015334;71;30940;-74
2022/07/03 09:13:16;;;;;;;25.63;24.23;;;;;;;20.62;100.00;101880.00;2009772;71;31047;-74
2022/07/03 09:19:00;;;;;;;24.23;22.83;;;;;;;20.71;100.00;101882.23;2017070;71;31009;-74
2022/07/03 09:24:54;;;;;;;24.97;23.43;;;;;;;19.94;100.00;101887.53;2004712;71;30893;-73
2022/07/03 09:30:39;;;;;;;27.13;25.60;;;;;;;19.36;100.00;101897.48;2009747;71;30942;-74
2022/07/03 09:36:26;;;;;;;29.13;27.37;;;;;;;19.08;100.00;101903.19;2013334;71;30875;-74
2022/07/03 09:45:16;;;;;;;24.67;23.37;;;;;;;19.93;100.00;101890.95;2061113;69;31091;-73
2022/07/03 09:47:47;;;;;;;23.90;22.60;;;;;;;20.12;100.00;101892.69;1938458;73;24592;-73
2022/07/03 09:50:17;;;;;;;23.10;21.90;;;;;;;20.20;100.00;101895.55;1937812;74;24186;-74
2022/07/03 09:52:49;;;;;;;22.97;21.87;;;;;;;20.49;100.00;101899.88;1965447;72;26312;-73
2022/07/03 09:55:20;;;;;;;23.90;22.47;;;;;;;20.55;100.00;101886.68;1937738;74;24191;-74
2022/07/03 09:58:02;;;;;;;21.67;20.53;;;;;;;20.95;100.00;101889.44;1931754;73;24168;-74
2022/07/03 10:00:34;;;;;;;20.87;19.77;;;;;;;21.27;100.00;101889.81;2023751;70;24189;-75
2022/07/03 10:03:06;;;;;;;20.33;19.10;;;;;;;21.23;100.00;101887.41;2017820;70;24105;-74
2022/07/03 10:05:38;;;;;;;18.90;17.90;;;;;;;21.17;100.00;101900.05;1937765;73;24591;-74
2022/07/03 10:08:10;;;;;;;18.37;17.57;;;;;;;20.84;100.00;101896.80;1934677;73;24152;-73
2022/07/03 10:10:43;;;;;;;19.20;18.20;;;;;;;20.72;100.00;101901.42;1933529;73;24164;-73
2022/07/03 10:13:14;;;;;;;16.67;15.83;;;;;;;20.79;100.00;101900.38;2018779;70;24270;-74
2022/07/03 10:15:45;;;;;;;14.77;14.00;;;;;;;21.02;100.00;101898.23;2017025;70;24592;-74
2022/07/03 10:18:17;;;;;;;14.50;13.73;;;;;;;21.28;100.00;101888.66;2010652;70;24150;-74
2022/07/03 10:20:49;;;;;;;13.80;13.20;;;;;;;21.48;100.00;101892.80;2010631;70;24275;-74
2022/07/03 10:23:22;;;;;;;13.53;12.73;;;;;;;21.32;100.00;101895.31;2006596;70;24134;-74
2022/07/03 10:25:54;;;;;;;13.80;13.17;;;;;;;21.26;100.00;101885.92;2012105;70;24601;-74
2022/07/03 10:28:25;;;;;;;14.10;13.30;;;;;;;21.45;100.00;101895.47;2017708;70;24630;-74
2022/07/03 10:30:56;;;;;;;12.57;11.97;;;;;;;21.48;100.00;101897.64;2018467;70;24154;-74
2022/07/03 10:33:27;;;;;;;12.27;11.57;;;;;;;21.45;100.00;101894.88;2017479;70;26674;-74
2022/07/03 10:36:00;;;;;;;12.10;11.50;;;;;;;21.50;100.00;101894.72;2009186;70;24642;-74
2022/07/03 10:38:39;;;;;;;10.93;10.43;;;;;;;21.53;100.00;101894.63;2015762;70;24641;-73
2022/07/03 10:51:13;;;;;;;11.47;10.97;;;;;;;21.18;100.00;101894.63;2008213;71;31463;-70
2022/07/03 10:57:18;;;;;;;13.60;12.20;;;;;;;21.24;100.00;101887.66;2002711;71;30926;-75
2022/07/03 11:00:21;;;;;;;12.90;11.60;;;;;;;;;;1959182;72;24217;-71
2022/07/03 11:06:06;;;;;;;16.43;11.27;;;;;;;21.34;100.00;101888.75;1996933;71;30823;-75
2022/07/03 11:12:03;;;;;;;12.50;11.70;;;;;;;21.49;100.00;101890.80;2000694;71;30820;-71
2022/07/03 11:18:17;;;;;;;9.90;9.40;;;;;;;21.54;100.00;101885.81;2011884;71;30876;-71
2022/07/03 11:21:33;;;;;;;10.07;9.50;;;;;;;21.47;100.00;101888.91;1964207;72;24208;-71
2022/07/03 11:27:52;;;;;;;10.23;9.50;;;;;;;21.59;100.00;101876.33;2011076;71;30909;-71
2022/07/03 11:33:44;;;;;;;9.80;9.30;;;;;;;21.55;100.00;101886.08;2000770;70;31366;-71
2022/07/03 11:39:38;;;;;;;9.30;8.90;;;;;;;21.45;100.00;101897.71;2006169;71;31004;-71
2022/07/03 11:45:24;;;;;;;10.80;10.00;;;;;;;21.37;100.00;101897.72;2018459;71;30897;-70
2022/07/03 11:51:08;;;;;;;11.43;10.03;;;;;;;21.48;100.00;101898.45;2016632;71;31024;-72
2022/07/03 11:56:55;;;;;;;15.10;10.07;;;;;;;21.77;100.00;101897.77;2015355;71;31399;-76
2022/07/03 12:02:51;;;;;;;9.43;9.03;;;;;;;21.71;100.00;101897.69;2016751;71;31413;-71
2022/07/03 12:08:35;;;;;;;9.60;9.10;;;;;;;21.66;100.00;101898.69;2016769;71;30920;-71
2022/07/03 12:14:36;;;;;;;8.60;8.30;;;;;;;22.14;100.00;101890.53;2011597;71;31004;-71
2022/07/03 12:20:21;;;;;;;9.93;9.33;;;;;;;22.05;100.00;101902.47;2005746;71;30909;-71
2022/07/03 12:26:06;;;;;;;9.73;9.33;;;;;;;22.17;100.00;101892.68;1995390;71;30862;-71
2022/07/03 12:31:52;;;;;;;10.05;9.45;;;;;;;22.35;100.00;101899.95;1999153;71;31338;-69
2022/07/03 12:37:40;;;;;;;9.33;8.83;;;;;;;22.38;100.00;101898.45;2004448;71;30851;-71
2022/07/03 12:43:27;;;;;;;9.20;8.90;;;;;;;22.30;100.00;101895.05;2004109;71;30868;-71
2022/07/03 12:49:12;;;;;;;9.60;9.20;;;;;;;22.33;100.00;101894.39;2006457;71;31333;-70
2022/07/03 12:54:58;;;;;;;9.57;9.17;;;;;;;22.35;100.00;101890.03;2009408;71;30926;-71
2022/07/03 13:00:49;;;;;;;10.20;9.53;;;;;;;22.37;100.00;101877.80;2015193;71;30938;-70
2022/07/03 13:06:46;;;;;;;10.98;9.93;;;;;;;22.39;100.00;101881.69;2015008;71;30992;-71
2022/07/03 13:12:30;;;;;;;10.50;9.85;;;;;;;22.19;100.00;101881.87;2003895;71;30879;-70
2022/07/03 13:18:15;;;;;;;8.80;8.40;;;;;;;22.42;100.00;101871.13;2002870;70;30896;-70
2022/07/03 13:24:00;;;;;;;9.40;8.80;;;;;;;22.19;100.00;101874.80;2008206;71;30878;-71
2022/07/03 13:29:45;;;;;;;9.07;8.50;;;;;;;22.16;100.00;101873.45;2008353;70;30847;-71
2022/07/03 13:35:31;;;;;;;9.70;9.20;;;;;;;22.16;100.00;101873.45;2016850;71;30881;-70
2022/07/03 13:41:18;;;;;;;9.33;8.93;;;;;;;22.15;100.00;101868.15;2011653;71;31025;-70
2022/07/03 13:47:02;;;;;;;10.03;9.53;;;;;;;22.20;100.00;101860.31;2009728;71;31430;-70
2022/07/03 13:52:47;;;;;;;9.60;9.23;;;;;;;22.38;100.00;101860.23;2008194;71;30895;-71
2022/07/03 13:58:31;;;;;;;8.87;8.37;;;;;;;22.32;100.00;101868.66;2009852;71;30854;-71
2022/07/03 14:04:15;;;;;;;9.10;8.70;;;;;;;22.41;100.00;101866.03;2015005;71;30970;-70
2022/07/03 14:09:59;;;;;;;9.83;9.43;;;;;;;22.39;100.00;101861.87;2004531;71;30862;-71
2022/07/03 14:15:44;;;;;;;9.80;9.10;;;;;;;22.36;100.00;101867.64;1999111;71;30903;-71
2022/07/03 14:21:28;;;;;;;9.25;8.80;;;;;;;22.46;100.00;101867.23;2014857;71;30853;-71
2022/07/03 14:33:17;;;;;;;9.78;9.38;;;;;;;22.66;100.00;101880.64;2011301;71;30978;-70
2022/07/03 14:39:01;;;;;;;21.35;15.90;;;;;;;22.41;100.00;101877.95;2011755;71;31330;-71
2022/07/03 14:44:45;;;;;;;28.50;16.30;;;;;;;22.20;100.00;101875.88;2006207;71;30963;-71
2022/07/03 14:50:29;;;;;;;9.58;9.18;;;;;;;22.25;100.00;101890.40;2006316;71;31122;-71
2022/07/03 14:56:18;;;;;;;9.60;9.20;;;;;;;22.25;100.00;101902.55;2006222;71;30972;-71
2022/07/03 15:02:05;;;;;;;9.28;8.48;;;;;;;22.23;100.00;101901.25;2015071;71;31339;-71
2022/07/03 15:08:00;;;;;;;52.60;34.33;;;;;;;22.09;100.00;101911.36;2014998;71;30919;-72
2022/07/03 15:10:33;;;;;;;53.00;35.73;;;;;;;22.06;100.00;101912.05;1986666;72;24251;-72
2022/07/03 15:16:19;;;;;;;50.03;30.92;;;;;;;22.18;100.00;101906.51;2015095;71;31006;-71
2022/07/03 15:22:05;;;;;;;59.08;33.15;;;;;;;22.22;100.00;101903.82;1991381;71;30892;-74
2022/07/03 15:27:54;;;;;;;45.85;27.02;;;;;;;22.37;100.00;101909.53;2014900;71;30968;-71
2022/07/03 15:33:40;;;;;;;18.80;14.20;;;;;;;22.38;100.00;101904.92;2009210;71;31060;-70
2022/07/03 15:39:28;;;;;;;16.25;13.30;;;;;;;22.42;100.00;101915.81;2007556;71;31507;-68
2022/07/03 15:45:21;;;;;;;12.47;11.33;;;;;;;22.40;100.00;101911.67;2014882;71;31036;-70
2022/07/03 15:51:17;;;;;;;12.78;11.63;;;;;;;22.42;100.00;101911.56;2000613;71;30853;-71
2022/07/03 15:53:50;;;;;;;12.57;11.43;;;;;;;22.38;100.00;101912.00;1966010;72;24162;-70
2022/07/03 15:56:24;;;;;;;12.33;11.38;;;;;;;22.37;100.00;101908.94;1959029;72;24264;-70
2022/07/03 15:58:58;;;;;;;11.30;10.45;;;;;;;22.38;100.00;101909.78;1977172;72;24215;-71
2022/07/03 16:07:51;;;;;;;11.15;10.55;;;;;;;22.43;100.00;101906.73;2002333;71;30924;-70
2022/07/03 16:13:40;;;;;;;11.55;10.85;;;;;;;22.44;100.00;101912.06;2015222;71;33385;-71
2022/07/03 16:19:26;;;;;;;10.98;10.28;;;;;;;22.46;100.00;101912.55;1997001;71;30878;-71
2022/07/03 16:25:12;;;;;;;10.20;9.80;;;;;;;22.45;100.00;101912.32;2017147;71;30970;-72
2022/07/03 16:30:59;;;;;;;13.18;12.28;;;;;;;22.43;100.00;101921.73;1994951;71;30880;-72
2022/07/03 16:36:47;;;;;;;11.57;10.93;;;;;;;22.52;100.00;101922.52;2009812;71;31479;-71
2022/07/03 16:42:34;;;;;;;11.70;11.10;;;;;;;22.52;100.00;101917.44;1980358;72;31058;-71
2022/07/03 16:48:24;;;;;;;11.43;10.93;;;;;;;22.50;100.00;101924.87;2015034;71;30931;-70
2022/07/03 16:54:11;;;;;;;11.73;11.00;;;;;;;22.47;100.00;101915.63;2000729;71;30999;-70
2022/07/03 16:59:55;;;;;;;12.58;11.53;;;;;;;22.53;100.00;101916.27;2016708;71;30997;-71
2022/07/03 17:05:40;;;;;;;10.05;9.60;;;;;;;22.39;100.00;101910.00;2012105;71;30804;-70
2022/07/03 17:11:25;;;;;;;10.32;9.75;;;;;;;22.23;100.00;101915.40;1991723;71;30798;-71
2022/07/03 17:17:13;;;;;;;10.13;9.63;;;;;;;22.05;100.00;101914.62;2015350;71;30859;-71
2022/07/03 17:23:02;;;;;;;9.83;9.30;;;;;;;22.10;100.00;101911.61;2012042;71;30846;-71
2022/07/03 17:28:52;;;;;;;9.50;9.00;;;;;;;21.94;100.00;101911.91;2009856;71;30908;-70
2022/07/03 17:34:40;;;;;;;10.00;9.40;;;;;;;21.83;100.00;101916.79;1995525;71;30857;-69
2022/07/03 17:40:27;;;;;;;10.58;10.03;;;;;;;21.73;100.00;101917.41;2011926;71;30919;-70
2022/07/03 17:46:14;;;;;;;9.97;9.37;;;;;;;21.82;100.00;101913.73;2011628;71;31425;-68
2022/07/03 17:51:59;;;;;;;10.18;9.68;;;;;;;21.80;100.00;101907.83;2000732;71;31244;-71
2022/07/03 17:57:45;;;;;;;11.12;10.50;;;;;;;21.77;100.00;101924.64;2015402;71;31421;-71
2022/07/03 18:03:32;;;;;;;10.53;10.03;;;;;;;22.45;100.00;101926.48;2002617;71;30867;-72
2022/07/03 18:09:20;;;;;;;9.98;9.58;;;;;;;21.70;100.00;101926.55;2006331;71;31416;-71
2022/07/03 18:15:11;;;;;;;10.13;9.73;;;;;;;21.53;100.00;101920.07;2011449;71;30996;-72
2022/07/03 18:20:59;;;;;;;10.17;9.67;;;;;;;21.38;100.00;101932.73;2000771;71;30932;-70
2022/07/03 18:26:47;;;;;;;9.80;9.30;;;;;;;21.17;100.00;101933.12;2004485;71;33404;-70
2022/07/03 18:32:37;;;;;;;10.10;9.60;;;;;;;21.16;100.00;101932.88;2015224;71;33351;-71
2022/07/03 18:38:24;;;;;;;9.60;9.10;;;;;;;21.05;100.00;101936.55;2017348;71;30996;-70
2022/07/03 18:44:11;;;;;;;9.80;9.30;;;;;;;20.80;100.00;101931.67;1997236;71;30866;-73
2022/07/03 18:49:56;;;;;;;9.77;9.27;;;;;;;20.65;100.00;101934.97;2000375;71;30902;-71
2022/07/03 18:55:50;;;;;;;9.80;9.40;;;;;;;20.53;100.00;101936.17;2007961;71;31003;-71
2022/07/03 19:01:44;;;;;;;9.80;9.40;;;;;;;20.42;100.00;101933.62;1998709;71;31013;-73
2022/07/03 19:07:43;;;;;;;10.37;9.87;;;;;;;20.62;100.00;101930.81;1991854;71;30832;-74
2022/07/03 19:13:30;;;;;;;10.63;10.10;;;;;;;20.70;100.00;101934.24;2006118;71;30967;-75
2022/07/03 19:19:16;;;;;;;10.73;10.20;;;;;;;20.64;100.00;101931.30;2017237;71;30890;-73
2022/07/03 19:25:03;;;;;;;10.27;9.67;;;;;;;20.65;100.00;101923.67;2004876;71;31400;-73
2022/07/03 19:30:47;;;;;;;10.70;10.10;;;;;;;20.59;100.00;101944.73;2004589;71;30914;-73
2022/07/03 19:36:32;;;;;;;11.00;10.40;;;;;;;20.48;100.00;101938.55;1995096;71;30902;-73
2022/07/03 19:42:17;;;;;;;10.50;10.10;;;;;;;20.44;100.00;101936.97;1995478;71;30854;-74
2022/07/03 19:48:02;;;;;;;10.00;9.60;;;;;;;20.50;100.00;101943.28;2016998;71;30918;-74
2022/07/03 19:53:46;;;;;;;11.83;11.33;;;;;;;19.97;100.00;101951.20;2008476;71;30931;-73
2022/07/03 19:59:31;;;;;;;10.70;10.20;;;;;;;20.00;100.00;101960.42;2006533;71;30815;-71
2022/07/03 20:05:15;;;;;;;10.43;9.93;;;;;;;20.16;100.00;101964.23;2016799;71;30971;-72
2022/07/03 20:11:00;;;;;;;10.80;10.40;;;;;;;20.16;100.00;101977.77;2015056;71;30989;-70
2022/07/03 20:16:44;;;;;;;9.97;9.57;;;;;;;20.03;100.00;101983.48;2011642;71;30859;-68
2022/07/03 20:22:28;;;;;;;10.00;9.60;;;;;;;19.77;100.00;101991.75;2017015;70;30903;-69
2022/07/03 20:28:14;;;;;;;11.47;10.77;;;;;;;19.74;100.00;102001.70;2000576;71;33425;-68
2022/07/03 20:33:59;;;;;;;10.43;9.93;;;;;;;19.74;100.00;102010.73;2004711;71;30985;-68
2022/07/03 20:39:45;;;;;;;10.30;9.90;;;;;;;19.83;100.00;102015.87;1991273;71;30830;-69
2022/07/03 20:45:29;;;;;;;11.30;10.70;;;;;;;19.66;100.00;102027.84;2012099;71;30831;-67
2022/07/03 20:51:17;;;;;;;10.83;10.37;;;;;;;19.61;100.00;102040.63;2005998;71;30886;-68
2022/07/03 20:57:03;;;;;;;10.47;9.93;;;;;;;19.78;100.00;102037.13;2000615;71;30904;-67
2022/07/03 21:02:49;;;;;;;10.30;9.90;;;;;;;19.71;100.00;102043.80;2001147;71;33369;-68
2022/07/03 21:08:34;;;;;;;10.90;10.20;;;;;;;19.55;100.00;102056.02;2016965;71;30882;-68
2022/07/03 21:14:22;;;;;;;10.13;9.63;;;;;;;19.42;100.00;102065.30;2009766;71;30928;-68
2022/07/03 21:20:09;;;;;;;11.10;10.60;;;;;;;19.17;100.00;102077.11;2008534;71;30821;-68
2022/07/03 21:25:54;;;;;;;11.23;10.63;;;;;;;19.18;100.00;102088.05;2013609;71;33384;-69
2022/07/03 21:31:38;;;;;;;10.67;10.17;;;;;;;19.12;100.00;102080.86;2015261;71;30927;-69
2022/07/03 21:37:24;;;;;;;11.60;11.10;;;;;;;19.06;100.00;102076.47;2015285;71;31463;-69
2022/07/03 21:43:08;;;;;;;11.20;10.70;;;;;;;18.92;100.00;102086.88;2009745;71;31013;-69
2022/07/03 21:48:53;;;;;;;11.37;10.87;;;;;;;18.69;100.00;102087.91;2015583;71;31410;-69
2022/07/03 21:54:38;;;;;;;12.00;11.30;;;;;;;18.58;100.00;102081.05;2012151;71;30869;-69
2022/07/03 22:00:23;;;;;;;15.27;14.57;;;;;;;18.25;100.00;102085.55;2001253;71;30892;-69
2022/07/03 22:06:08;;;;;;;12.93;12.30;;;;;;;18.17;100.00;102103.41;2008534;71;31322;-69
2022/07/03 22:17:55;;;;;;;13.93;13.33;;;;;;;17.99;100.00;102105.66;2015166;71;30921;-69
2022/07/03 22:23:39;;;;;;;14.07;13.47;;;;;;;17.62;100.00;102102.84;1995690;71;30893;-69
2022/07/03 22:29:24;;;;;;;13.63;13.03;;;;;;;17.72;100.00;102105.48;1995424;71;30893;-69
2022/07/03 22:35:11;;;;;;;15.37;14.47;;;;;;;17.75;100.00;102109.13;2016964;71;32871;-69
2022/07/03 22:40:55;;;;;;;14.40;13.80;;;;;;;17.43;100.00;102115.41;2012053;71;30854;-69
2022/07/03 22:46:40;;;;;;;13.40;12.83;;;;;;;17.58;100.00;102120.88;2009894;71;30941;-69
2022/07/03 22:52:27;;;;;;;12.63;12.13;;;;;;;17.54;100.00;102113.32;2006625;71;31451;-69
2022/07/03 22:58:11;;;;;;;12.20;11.70;;;;;;;17.44;100.00;102120.47;1997408;71;31379;-69
2022/07/03 23:03:56;;;;;;;12.23;11.67;;;;;;;17.76;100.00;102110.77;2006557;71;32906;-68
2022/07/03 23:09:40;;;;;;;12.20;11.60;;;;;;;17.36;100.00;102109.33;2001275;71;33357;-67
2022/07/03 23:15:27;;;;;;;11.50;11.10;;;;;;;17.18;100.00;102109.55;2010410;71;33322;-69
2022/07/03 23:21:13;;;;;;;12.00;11.50;;;;;;;17.17;100.00;102112.08;2006205;71;32147;-69
2022/07/03 23:26:57;;;;;;;12.07;11.40;;;;;;;17.13;100.00;102117.19;2015252;71;33352;-69
2022/07/03 23:32:43;;;;;;;11.87;11.27;;;;;;;17.06;100.00;102109.14;2007801;71;30912;-69
2022/07/03 23:38:31;;;;;;;11.83;11.30;;;;;;;16.66;100.00;102103.38;2011515;71;31387;-69
2022/07/03 23:44:16;;;;;;;12.43;11.90;;;;;;;16.66;100.00;102096.36;2016968;71;30890;-69
2022/07/03 23:56:04;;;;;;;12.07;11.57;;;;;;;16.48;100.00;102106.04;2009692;71;32880;-68
